Time;durP1;ratioP1;P1;durP2;ratioP2;P2;SDS_P1;SDS_P2;PMS_P1;PMS_P2;Temp;Humidity;BMP_temperature;BMP_pressure;BME280_temperature;BME280_humidity;BME280_pressure;Samples;Min_cycle;Max_cycle;Signal;HPM_P1;HPM_P2
2021/05/02 00:01:00;;;;;;;1.43;1.40;;;8.40;98.00;;;;;;5034438;28;20499;-70
2021/05/02 00:03:31;;;;;;;2.23;1.90;;;8.30;98.00;;;;;;5035089;28;20540;-70
2021/05/02 00:05:58;;;;;;;2.33;2.17;;;8.20;98.00;;;;;;5033349;28;20473;-70
2021/05/02 00:08:25;;;;;;;2.43;1.63;;;8.10;98.00;;;;;;5034609;28;20937;-70
2021/05/02 00:10:51;;;;;;;1.93;1.30;;;8.10;98.00;;;;;;5031391;28;20495;-70
2021/05/02 00:13:18;;;;;;;1.50;1.40;;;8.10;98.00;;;;;;5034651;28;20969;-70
2021/05/02 00:15:44;;;;;;;1.83;1.63;;;8.10;98.00;;;;;;5031806;28;20497;-70
2021/05/02 00:18:11;;;;;;;1.97;1.50;;;8.20;98.00;;;;;;5034383;28;20491;-70
2021/05/02 00:20:39;;;;;;;2.50;2.40;;;8.20;98.00;;;;;;5031368;28;20930;-70
2021/05/02 00:23:06;;;;;;;1.20;1.00;;;8.20;98.00;;;;;;5033128;28;20465;-70
2021/05/02 00:25:34;;;;;;;1.63;1.17;;;8.20;98.00;;;;;;5031581;28;20451;-70
2021/05/02 00:28:05;;;;;;;1.93;1.67;;;8.20;98.00;;;;;;5033127;28;20954;-70
2021/05/02 00:30:33;;;;;;;1.30;1.07;;;8.10;98.00;;;;;;5029867;28;20494;-71
2021/05/02 00:33:01;;;;;;;1.20;1.10;;;8.00;98.00;;;;;;5033787;28;20980;-69
2021/05/02 00:35:29;;;;;;;1.50;1.40;;;7.90;98.00;;;;;;5031171;28;20877;-70
2021/05/02 00:37:57;;;;;;;1.27;1.17;;;7.80;98.00;;;;;;5034264;28;20483;-70
2021/05/02 00:40:34;;;;;;;1.50;1.30;;;7.70;98.00;;;;;;5031296;28;20534;-70
2021/05/02 00:43:04;;;;;;;1.30;1.10;;;7.70;98.00;;;;;;5033991;28;20461;-70
2021/05/02 00:45:38;;;;;;;1.53;1.37;;;7.70;98.00;;;;;;5031414;28;20459;-70
2021/05/02 00:48:09;;;;;;;1.40;1.30;;;7.60;98.00;;;;;;5033958;28;20479;-70
2021/05/02 00:50:48;;;;;;;1.80;1.70;;;7.60;98.00;;;;;;5030835;28;20527;-70
2021/05/02 00:53:30;;;;;;;1.77;1.10;;;7.60;98.00;;;;;;5033803;28;20545;-70
2021/05/02 00:55:58;;;;;;;1.30;1.17;;;7.60;98.00;;;;;;5030745;28;20463;-70
2021/05/02 00:58:44;;;;;;;2.33;1.80;;;7.60;98.00;;;;;;5033567;28;20517;-70
2021/05/02 01:01:19;;;;;;;3.53;2.03;;;7.60;98.00;;;;;;5033479;28;20461;-70
2021/05/02 01:03:47;;;;;;;2.90;1.53;;;7.70;98.00;;;;;;5030548;28;20549;-70
2021/05/02 01:06:15;;;;;;;2.47;1.53;;;7.70;98.00;;;;;;5032204;28;20462;-70
2021/05/02 01:08:43;;;;;;;1.53;1.43;;;7.50;98.00;;;;;;5030473;28;20529;-70
2021/05/02 01:11:12;;;;;;;2.27;1.73;;;7.60;98.00;;;;;;5033215;28;20941;-70
2021/05/02 01:13:47;;;;;;;1.87;1.47;;;7.50;98.00;;;;;;5032245;28;20486;-70
2021/05/02 01:16:15;;;;;;;1.67;1.20;;;7.50;98.00;;;;;;5033534;28;20521;-70
2021/05/02 01:18:44;;;;;;;1.27;1.23;;;7.40;98.00;;;;;;5031494;28;20553;-71
2021/05/02 01:21:14;;;;;;;1.50;1.40;;;7.40;98.00;;;;;;5033385;28;20469;-69
2021/05/02 01:23:42;;;;;;;3.17;1.30;;;7.40;98.00;;;;;;5031671;28;20550;-70
2021/05/02 01:26:09;;;;;;;1.33;1.20;;;7.40;98.00;;;;;;5032637;28;20505;-70
2021/05/02 01:28:37;;;;;;;1.33;1.27;;;7.50;98.00;;;;;;5032833;28;20945;-69
2021/05/02 01:31:04;;;;;;;4.60;1.77;;;7.40;98.00;;;;;;5030883;28;20459;-70
2021/05/02 01:33:31;;;;;;;2.63;1.77;;;7.40;98.00;;;;;;5032940;28;20455;-70
2021/05/02 01:35:57;;;;;;;2.13;1.77;;;7.20;98.00;;;;;;5030128;28;20477;-70
2021/05/02 01:38:26;;;;;;;1.73;1.20;;;7.20;98.00;;;;;;5032779;28;20866;-70
2021/05/02 01:40:54;;;;;;;2.57;2.27;;;7.30;98.00;;;;;;5029952;28;20455;-70
2021/05/02 01:43:24;;;;;;;2.13;1.83;;;7.20;98.00;;;;;;5032738;28;20467;-69
2021/05/02 01:45:51;;;;;;;1.60;1.50;;;7.20;98.00;;;;;;5030076;28;20461;-70
2021/05/02 01:48:18;;;;;;;1.20;1.10;;;7.30;98.00;;;;;;5032646;28;21270;-69
2021/05/02 01:50:47;;;;;;;4.07;1.73;;;7.20;98.00;;;;;;5029674;28;20525;-70
2021/05/02 01:53:16;;;;;;;1.57;1.50;;;7.20;98.00;;;;;;5032520;28;20534;-70
2021/05/02 01:55:43;;;;;;;2.27;2.10;;;7.10;98.00;;;;;;5029639;28;20505;-70
2021/05/02 01:58:21;;;;;;;1.10;1.00;;;7.10;98.00;;;;;;5032778;28;20486;-70
2021/05/02 02:00:53;;;;;;;2.47;2.27;;;7.20;98.00;;;;;;5029750;28;20454;-69
2021/05/02 02:03:21;;;;;;;2.40;2.20;;;7.20;98.00;;;;;;5032685;28;20504;-69
2021/05/02 02:05:48;;;;;;;2.43;1.50;;;7.10;98.00;;;;;;5029503;28;20837;-70
2021/05/02 02:08:16;;;;;;;1.50;1.40;;;7.20;98.00;;;;;;5032320;28;20459;-70
2021/05/02 02:10:43;;;;;;;1.97;1.53;;;7.30;98.00;;;;;;5029356;28;20486;-70
2021/05/02 02:13:12;;;;;;;2.80;2.17;;;7.40;98.00;;;;;;5032157;28;20449;-70
2021/05/02 02:15:39;;;;;;;3.00;2.30;;;7.50;98.00;;;;;;5028662;28;20466;-69
2021/05/02 02:18:07;;;;;;;1.10;1.00;;;7.60;98.00;;;;;;5031365;28;20463;-70
2021/05/02 02:20:38;;;;;;;1.80;1.70;;;7.60;98.00;;;;;;5028591;28;20949;-70
2021/05/02 02:23:10;;;;;;;1.50;1.40;;;7.50;98.00;;;;;;5031883;28;20456;-70
2021/05/02 02:25:44;;;;;;;1.87;1.80;;;7.60;98.00;;;;;;5028026;28;20459;-70
2021/05/02 02:28:15;;;;;;;4.33;2.33;;;7.50;98.00;;;;;;5031469;28;20474;-70
2021/05/02 02:30:44;;;;;;;1.83;1.73;;;7.40;98.00;;;;;;5028691;28;20484;-70
2021/05/02 02:33:11;;;;;;;1.37;1.30;;;7.50;98.00;;;;;;5031798;28;20584;-70
2021/05/02 02:35:41;;;;;;;2.90;2.43;;;7.40;98.00;;;;;;5029408;28;20458;-70
2021/05/02 02:38:13;;;;;;;5.80;2.00;;;7.50;98.00;;;;;;5031838;28;20462;-70
2021/05/02 02:40:40;;;;;;;3.20;2.10;;;7.50;98.00;;;;;;5028962;28;20447;-70
2021/05/02 02:43:12;;;;;;;2.37;1.90;;;7.40;98.00;;;;;;5031788;28;20456;-70
2021/05/02 02:45:41;;;;;;;1.93;1.53;;;7.30;98.00;;;;;;5029434;28;20457;-70
2021/05/02 02:48:11;;;;;;;3.73;2.30;;;7.40;98.00;;;;;;5031697;28;20493;-70
2021/05/02 02:50:44;;;;;;;1.73;1.70;;;7.40;98.00;;;;;;5028276;28;20558;-70
2021/05/02 02:53:15;;;;;;;2.20;2.00;;;7.60;98.00;;;;;;5031724;28;20455;-70
2021/05/02 02:55:43;;;;;;;2.70;1.93;;;7.70;98.00;;;;;;5028491;28;20537;-70
2021/05/02 02:58:14;;;;;;;3.83;2.73;;;7.60;98.00;;;;;;5031588;28;20528;-70
2021/05/02 03:00:42;;;;;;;2.83;2.50;;;7.60;98.00;;;;;;5028533;28;20533;-70
2021/05/02 03:03:12;;;;;;;2.80;1.93;;;7.60;98.00;;;;;;5031685;28;20462;-69
2021/05/02 03:05:39;;;;;;;6.97;3.07;;;7.50;98.00;;;;;;5028721;28;20458;-70
2021/05/02 03:08:08;;;;;;;2.40;1.47;;;7.50;98.00;;;;;;5031426;28;20451;-70
2021/05/02 03:10:36;;;;;;;6.00;1.50;;;7.30;98.00;;;;;;5028281;28;20482;-70
2021/05/02 03:13:05;;;;;;;3.50;2.13;;;7.40;98.00;;;;;;5031201;28;20514;-70
2021/05/02 03:15:32;;;;;;;1.13;1.07;;;7.40;98.00;;;;;;5028820;28;20484;-70
2021/05/02 03:18:04;;;;;;;1.40;1.37;;;7.40;98.00;;;;;;5031489;28;20462;-70
2021/05/02 03:20:35;;;;;;;1.97;1.87;;;7.40;98.00;;;;;;5027568;28;20805;-70
2021/05/02 03:23:08;;;;;;;3.67;2.20;;;7.50;98.00;;;;;;5031791;28;20494;-69
2021/05/02 03:25:40;;;;;;;1.43;1.33;;;7.40;98.00;;;;;;5029093;28;20490;-70
2021/05/02 03:28:07;;;;;;;5.17;1.47;;;7.40;98.00;;;;;;5031460;28;20512;-69
2021/05/02 03:30:34;;;;;;;2.30;1.70;;;7.40;98.00;;;;;;5028817;28;20506;-70
2021/05/02 03:33:04;;;;;;;1.40;1.30;;;7.20;98.00;;;;;;5031341;28;20454;-70
2021/05/02 03:35:33;;;;;;;2.17;2.03;;;7.20;98.00;;;;;;5028412;28;20497;-69
2021/05/02 03:38:20;;;;;;;2.27;1.80;;;7.20;98.00;;;;;;5031245;28;20483;-69
2021/05/02 03:40:48;;;;;;;1.60;1.20;;;7.30;98.00;;;;;;5028413;28;20462;-70
2021/05/02 03:43:16;;;;;;;23.77;2.67;;;7.30;98.00;;;;;;5031229;28;20462;-70
2021/05/02 03:45:43;;;;;;;6.53;3.00;;;7.20;98.00;;;;;;5028107;28;20458;-69
2021/05/02 03:48:15;;;;;;;3.13;2.27;;;7.20;98.00;;;;;;5031098;28;20463;-69
2021/05/02 03:50:41;;;;;;;1.73;1.63;;;7.20;98.00;;;;;;5028233;28;20847;-70
2021/05/02 03:53:09;;;;;;;1.30;1.23;;;7.10;98.00;;;;;;5030998;28;20463;-70
2021/05/02 03:55:42;;;;;;;2.23;1.93;;;7.00;98.00;;;;;;5028186;28;20520;-69
2021/05/02 03:58:10;;;;;;;3.50;2.50;;;7.00;98.00;;;;;;5030781;28;20477;-70
2021/05/02 04:00:36;;;;;;;1.77;1.57;;;6.90;98.00;;;;;;5028053;28;20494;-69
2021/05/02 04:03:03;;;;;;;2.13;1.50;;;6.80;98.00;;;;;;5031915;28;20471;-69
2021/05/02 04:05:30;;;;;;;3.93;2.17;;;6.80;98.00;;;;;;5031664;28;20462;-70
2021/05/02 04:07:57;;;;;;;2.23;1.67;;;6.80;98.00;;;;;;5034544;28;20973;-69
2021/05/02 04:10:24;;;;;;;1.83;1.77;;;7.00;98.00;;;;;;5031506;28;20486;-69
2021/05/02 04:12:52;;;;;;;2.20;1.40;;;7.00;98.00;;;;;;5034542;28;20486;-69
2021/05/02 04:15:18;;;;;;;1.50;1.40;;;7.00;98.00;;;;;;5031402;28;20968;-70
2021/05/02 04:17:46;;;;;;;1.67;1.43;;;6.90;98.00;;;;;;5034335;28;20454;-69
2021/05/02 04:20:14;;;;;;;3.90;1.70;;;6.90;98.00;;;;;;5030562;28;20468;-69
2021/05/02 04:22:42;;;;;;;3.33;2.13;;;7.00;98.00;;;;;;5034413;28;20529;-69
2021/05/02 04:25:10;;;;;;;2.40;2.20;;;7.00;98.00;;;;;;5031137;28;20489;-69
2021/05/02 04:27:37;;;;;;;3.67;2.17;;;7.10;98.00;;;;;;5034316;28;20465;-70
2021/05/02 04:30:05;;;;;;;2.90;1.83;;;7.00;98.00;;;;;;5031306;28;20486;-70
2021/05/02 04:32:33;;;;;;;3.53;2.73;;;7.00;98.00;;;;;;5033988;28;20828;-69
2021/05/02 04:34:59;;;;;;;5.43;2.37;;;7.10;98.00;;;;;;5031106;28;20465;-69
2021/05/02 04:37:33;;;;;;;2.50;1.63;;;7.10;98.00;;;;;;5033961;28;20998;-69
2021/05/02 04:40:00;;;;;;;2.47;2.37;;;7.10;98.00;;;;;;5030708;28;20465;-69
2021/05/02 04:42:27;;;;;;;2.30;1.90;;;7.10;98.00;;;;;;5034449;28;20464;-69
2021/05/02 04:44:53;;;;;;;1.70;1.50;;;7.20;98.00;;;;;;5031536;28;20976;-69
2021/05/02 04:47:22;;;;;;;2.47;1.77;;;7.30;98.00;;;;;;5033980;28;20468;-70
2021/05/02 04:49:49;;;;;;;2.43;2.20;;;7.20;98.00;;;;;;5031160;28;20488;-69
2021/05/02 04:52:19;;;;;;;1.40;1.40;;;7.20;98.00;;;;;;5034027;28;20516;-69
2021/05/02 04:54:45;;;;;;;4.43;2.23;;;7.30;98.00;;;;;;5030645;28;20463;-69
2021/05/02 04:57:13;;;;;;;2.07;1.40;;;7.30;98.00;;;;;;5033717;28;20465;-70
2021/05/02 04:59:40;;;;;;;2.30;1.97;;;7.40;98.00;;;;;;5030841;28;20467;-69
2021/05/02 05:02:07;;;;;;;6.50;3.27;;;7.30;98.00;;;;;;5033551;28;20462;-69
2021/05/02 05:04:35;;;;;;;2.27;1.53;;;7.40;98.00;;;;;;5029785;28;20483;-69
2021/05/02 05:07:02;;;;;;;1.97;1.33;;;7.50;98.00;;;;;;5033553;28;20463;-70
2021/05/02 05:09:28;;;;;;;2.20;2.00;;;7.40;98.00;;;;;;5030604;28;20545;-69
2021/05/02 05:11:55;;;;;;;1.70;1.57;;;7.50;98.00;;;;;;5033397;28;20458;-70
2021/05/02 05:14:23;;;;;;;2.37;1.90;;;7.50;98.00;;;;;;5030455;28;20481;-69
2021/05/02 05:16:49;;;;;;;3.33;2.23;;;7.50;98.00;;;;;;5033278;28;20505;-70
2021/05/02 05:19:16;;;;;;;2.53;1.93;;;7.60;98.00;;;;;;5029369;28;20469;-70
2021/05/02 05:21:44;;;;;;;1.97;1.73;;;7.60;98.00;;;;;;5033106;28;21019;-69
2021/05/02 05:24:11;;;;;;;3.10;2.17;;;7.70;98.00;;;;;;5029042;28;20979;-70
2021/05/02 05:26:39;;;;;;;4.97;2.20;;;7.80;98.00;;;;;;5033532;28;20491;-69
2021/05/02 05:29:06;;;;;;;2.07;1.93;;;7.90;98.00;;;;;;5030044;28;20483;-69
2021/05/02 05:31:40;;;;;;;2.53;2.13;;;8.00;98.00;;;;;;5033155;28;20514;-70
2021/05/02 05:34:09;;;;;;;3.10;1.87;;;8.10;98.00;;;;;;5030833;28;20856;-70
2021/05/02 05:36:36;;;;;;;1.73;1.73;;;8.00;98.00;;;;;;5033063;28;20494;-69
2021/05/02 05:39:04;;;;;;;2.53;2.07;;;8.00;98.00;;;;;;5031397;28;20463;-69
2021/05/02 05:41:31;;;;;;;2.70;1.70;;;8.00;98.00;;;;;;5031503;28;20518;-70
2021/05/02 05:43:58;;;;;;;1.90;1.50;;;8.10;98.00;;;;;;5032894;28;20543;-69
2021/05/02 05:46:25;;;;;;;1.20;1.10;;;8.10;98.00;;;;;;5029824;28;20461;-70
2021/05/02 05:48:52;;;;;;;2.60;2.40;;;8.10;98.00;;;;;;5032520;28;20968;-69
2021/05/02 05:51:19;;;;;;;1.63;1.53;;;8.20;98.00;;;;;;5030205;28;20476;-69
2021/05/02 05:53:45;;;;;;;1.97;1.53;;;8.20;98.00;;;;;;5032382;28;20458;-69
2021/05/02 05:56:13;;;;;;;1.60;1.13;;;8.20;98.00;;;;;;5029422;28;20464;-70
2021/05/02 05:58:41;;;;;;;1.73;1.57;;;8.30;98.00;;;;;;5032314;28;20467;-70
2021/05/02 06:01:10;;;;;;;5.50;2.47;;;8.30;98.00;;;;;;5029753;28;20459;-69
2021/05/02 06:03:38;;;;;;;1.63;1.57;;;8.40;98.00;;;;;;5030926;28;20527;-69
2021/05/02 06:06:09;;;;;;;2.97;1.90;;;8.40;98.00;;;;;;5029718;28;20461;-69
2021/05/02 06:08:35;;;;;;;5.10;2.20;;;8.40;98.00;;;;;;5032110;28;20467;-69
2021/05/02 06:11:02;;;;;;;1.90;1.50;;;8.40;98.00;;;;;;5029905;28;20491;-69
2021/05/02 06:13:29;;;;;;;3.83;1.87;;;8.40;98.00;;;;;;5032551;28;20467;-69
2021/05/02 06:15:55;;;;;;;4.23;2.07;;;8.40;98.00;;;;;;5029557;28;20524;-69
2021/05/02 06:18:22;;;;;;;1.90;1.80;;;8.40;98.00;;;;;;5030949;28;20514;-68
2021/05/02 06:20:49;;;;;;;1.70;1.50;;;8.40;98.00;;;;;;5029627;28;20888;-68
2021/05/02 06:23:18;;;;;;;5.63;2.43;;;8.50;98.00;;;;;;5031932;28;20935;-68
2021/05/02 06:25:50;;;;;;;37.67;2.10;;;8.50;98.00;;;;;;5028591;28;20459;-69
2021/05/02 06:28:17;;;;;;;2.63;1.20;;;8.50;98.00;;;;;;5031828;28;20478;-69
2021/05/02 06:30:46;;;;;;;2.17;1.90;;;8.40;98.00;;;;;;5029088;28;20483;-69
2021/05/02 06:33:12;;;;;;;2.77;2.07;;;8.50;98.00;;;;;;5031531;28;20518;-68
2021/05/02 06:35:39;;;;;;;2.33;1.50;;;8.50;98.00;;;;;;5029115;28;20505;-69
2021/05/02 06:38:06;;;;;;;3.20;1.70;;;8.60;98.00;;;;;;5013990;28;20452;-69
2021/05/02 06:40:34;;;;;;;2.10;1.70;;;8.80;98.00;;;;;;5028776;28;20460;-69
2021/05/02 06:43:00;;;;;;;1.47;1.43;;;8.90;98.00;;;;;;5031517;28;20457;-69
2021/05/02 06:45:27;;;;;;;1.80;1.50;;;8.90;98.00;;;;;;5029154;28;20455;-70
2021/05/02 06:47:55;;;;;;;2.60;1.93;;;9.20;98.00;;;;;;5031689;28;20470;-70
2021/05/02 06:50:22;;;;;;;3.00;2.43;;;9.30;98.00;;;;;;5027333;28;20490;-70
2021/05/02 06:52:50;;;;;;;2.70;1.83;;;9.50;98.00;;;;;;5031381;28;20469;-70
2021/05/02 06:55:16;;;;;;;2.60;2.20;;;9.60;98.00;;;;;;5029337;28;20793;-70
2021/05/02 06:57:44;;;;;;;2.07;1.77;;;9.60;98.00;;;;;;5031825;28;20460;-71
2021/05/02 07:00:11;;;;;;;2.50;1.57;;;9.70;98.00;;;;;;5028006;28;20991;-71
2021/05/02 07:02:38;;;;;;;3.50;2.30;;;9.70;98.00;;;;;;5031665;28;20465;-71
2021/05/02 07:05:06;;;;;;;2.33;1.70;;;9.70;98.00;;;;;;5027850;28;20857;-71
2021/05/02 07:07:36;;;;;;;3.70;2.40;;;9.80;98.00;;;;;;5031478;28;20498;-71
2021/05/02 07:10:03;;;;;;;1.40;1.40;;;9.70;98.00;;;;;;5028566;28;20573;-70
2021/05/02 07:12:30;;;;;;;1.30;1.30;;;9.70;98.00;;;;;;5031472;28;20923;-70
2021/05/02 07:14:57;;;;;;;2.73;2.33;;;9.70;98.00;;;;;;5028565;28;20458;-71
2021/05/02 07:17:24;;;;;;;3.83;2.43;;;9.60;98.00;;;;;;5031148;28;20539;-70
2021/05/02 07:19:50;;;;;;;1.50;1.30;;;9.50;98.00;;;;;;5028585;28;20529;-71
2021/05/02 07:22:19;;;;;;;2.30;1.43;;;9.50;98.00;;;;;;5031096;28;20461;-71
2021/05/02 07:24:49;;;;;;;2.60;2.23;;;9.60;98.00;;;;;;5028710;28;20518;-71
2021/05/02 07:27:16;;;;;;;1.97;1.87;;;9.80;98.00;;;;;;5031124;28;20447;-71
2021/05/02 07:29:43;;;;;;;3.57;2.13;;;10.00;98.00;;;;;;5027084;28;20530;-69
2021/05/02 07:32:10;;;;;;;2.87;1.93;;;9.80;98.00;;;;;;5028387;28;20820;-70
2021/05/02 07:34:37;;;;;;;3.00;1.73;;;9.70;98.00;;;;;;5027825;28;20999;-69
2021/05/02 07:37:03;;;;;;;2.80;2.30;;;9.60;98.00;;;;;;5031500;28;20862;-70
2021/05/02 07:39:30;;;;;;;2.67;2.00;;;9.60;98.00;;;;;;5032411;28;20495;-69
2021/05/02 07:41:56;;;;;;;1.77;1.60;;;9.70;98.00;;;;;;5034915;28;20588;-69
2021/05/02 07:44:23;;;;;;;2.00;1.43;;;9.80;98.00;;;;;;5031742;28;20476;-70
2021/05/02 07:46:51;;;;;;;3.10;1.63;;;9.70;98.00;;;;;;5034393;28;20463;-69
2021/05/02 07:49:19;;;;;;;2.93;2.27;;;9.70;98.00;;;;;;5033864;28;20461;-69
2021/05/02 07:51:45;;;;;;;2.97;2.70;;;9.80;98.00;;;;;;5033875;28;20988;-71
2021/05/02 07:54:12;;;;;;;2.43;1.60;;;9.90;98.00;;;;;;5034419;28;20458;-71
2021/05/02 07:56:38;;;;;;;2.93;2.00;;;9.90;98.00;;;;;;5031382;28;20499;-70
2021/05/02 07:59:05;;;;;;;1.70;1.43;;;9.70;98.00;;;;;;5034183;28;20466;-71
2021/05/02 08:01:31;;;;;;;2.10;1.63;;;9.60;98.00;;;;;;5031548;28;21054;-71
2021/05/02 08:03:58;;;;;;;2.10;1.80;;;9.60;98.00;;;;;;5034212;28;20454;-70
2021/05/02 08:06:25;;;;;;;2.13;2.00;;;9.50;98.00;;;;;;5030721;28;20504;-69
2021/05/02 08:08:53;;;;;;;2.43;2.07;;;9.50;98.00;;;;;;5033144;28;20462;-68
2021/05/02 08:11:20;;;;;;;5.10;2.23;;;9.60;98.00;;;;;;5030544;28;21011;-69
2021/05/02 08:13:48;;;;;;;2.37;2.17;;;9.70;98.00;;;;;;5033545;28;20828;-68
2021/05/02 08:16:16;;;;;;;2.50;1.93;;;9.90;98.00;;;;;;5031516;28;21127;-68
2021/05/02 08:18:42;;;;;;;1.30;1.30;;;10.10;98.00;;;;;;5033588;28;20458;-69
2021/05/02 08:21:10;;;;;;;5.10;1.73;;;10.30;98.00;;;;;;5031004;28;20451;-69
2021/05/02 08:23:38;;;;;;;1.93;1.67;;;10.50;98.00;;;;;;5034103;28;20819;-70
2021/05/02 08:26:05;;;;;;;1.40;1.40;;;10.70;98.00;;;;;;5031254;28;20458;-69
2021/05/02 08:28:31;;;;;;;3.50;1.60;;;10.70;98.00;;;;;;5033072;28;20466;-69
2021/05/02 08:30:59;;;;;;;1.73;1.50;;;10.60;98.00;;;;;;5012960;28;20486;-70
2021/05/02 08:33:26;;;;;;;3.17;1.80;;;10.50;98.00;;;;;;5033841;28;20508;-69
2021/05/02 08:35:52;;;;;;;1.80;1.50;;;10.50;98.00;;;;;;5030738;28;20946;-68
2021/05/02 08:38:19;;;;;;;2.50;1.20;;;10.50;98.00;;;;;;5033302;28;20484;-70
2021/05/02 08:40:47;;;;;;;3.10;2.30;;;10.40;98.00;;;;;;5030766;28;20455;-67
2021/05/02 08:43:15;;;;;;;3.83;2.23;;;10.60;98.00;;;;;;5033736;28;21015;-68
2021/05/02 08:45:41;;;;;;;2.07;1.40;;;10.70;98.00;;;;;;5030052;28;20458;-69
2021/05/02 08:48:08;;;;;;;4.30;2.00;;;10.70;98.00;;;;;;5032982;28;20492;-69
2021/05/02 08:50:35;;;;;;;1.80;1.80;;;10.70;98.00;;;;;;5028519;28;20570;-70
2021/05/02 08:53:05;;;;;;;1.70;1.70;;;10.70;98.00;;;;;;5033330;28;20799;-69
2021/05/02 08:55:33;;;;;;;1.80;1.33;;;10.60;98.00;;;;;;5029148;28;20467;-69
2021/05/02 08:58:00;;;;;;;1.70;1.43;;;10.60;98.00;;;;;;5033127;28;20466;-69
2021/05/02 09:00:28;;;;;;;4.53;2.30;;;10.60;98.00;;;;;;5029001;28;20463;-69
2021/05/02 09:02:56;;;;;;;2.03;1.77;;;10.90;98.00;;;;;;5033176;28;20463;-70
2021/05/02 09:05:23;;;;;;;2.50;2.30;;;11.20;98.00;;;;;;5030514;28;20451;-70
2021/05/02 09:07:50;;;;;;;3.20;1.80;;;11.20;98.00;;;;;;5032858;28;20457;-69
2021/05/02 09:10:20;;;;;;;2.20;2.03;;;11.20;98.00;;;;;;5030062;28;20497;-69
2021/05/02 09:12:58;;;;;;;2.20;1.87;;;11.20;98.00;;;;;;5032028;28;20979;-69
2021/05/02 09:15:34;;;;;;;3.50;2.00;;;11.00;98.00;;;;;;5030305;28;20458;-68
2021/05/02 09:18:09;;;;;;;1.50;1.10;;;10.80;98.00;;;;;;5032976;28;20957;-68
2021/05/02 09:20:51;;;;;;;1.47;1.30;;;10.60;98.00;;;;;;5030072;28;20527;-70
2021/05/02 09:23:18;;;;;;;1.50;1.40;;;10.40;98.00;;;;;;5032737;28;20847;-68
2021/05/02 09:25:50;;;;;;;3.67;3.13;;;10.40;98.00;;;;;;5029906;28;21059;-69
2021/05/02 09:28:17;;;;;;;3.27;2.27;;;10.40;98.00;;;;;;5032434;28;20541;-69
2021/05/02 09:30:46;;;;;;;1.87;1.70;;;10.40;98.00;;;;;;5029660;28;20528;-70
2021/05/02 09:33:26;;;;;;;1.87;1.77;;;10.30;98.00;;;;;;5031642;28;20469;-70
2021/05/02 09:35:53;;;;;;;1.40;1.23;;;10.50;98.00;;;;;;5029672;28;20964;-68
2021/05/02 09:38:20;;;;;;;3.67;3.13;;;10.90;98.00;;;;;;5032439;28;20479;-71
2021/05/02 09:40:52;;;;;;;5.80;2.00;;;11.20;98.00;;;;;;5029510;28;20447;-73
2021/05/02 09:43:35;;;;;;;5.00;2.17;;;11.30;98.00;;;;;;5047039;28;20452;-71
2021/05/02 09:46:30;;;;;;;2.07;1.60;;;11.50;98.00;;;;;;5049543;28;20859;-71
2021/05/02 09:49:21;;;;;;;2.67;1.70;;;11.80;98.00;;;;;;5051999;28;21119;-69
2021/05/02 09:51:51;;;;;;;3.43;2.20;;;12.00;97.30;;;;;;5044176;28;20519;-69
2021/05/02 09:54:19;;;;;;;4.13;2.47;;;11.90;94.80;;;;;;5052021;28;20456;-70
2021/05/02 09:56:48;;;;;;;1.80;1.60;;;12.00;94.70;;;;;;5049879;28;20516;-71
2021/05/02 09:59:26;;;;;;;4.40;2.37;;;11.70;96.20;;;;;;5052066;28;20459;-70
2021/05/02 10:02:29;;;;;;;1.63;1.47;;;11.70;95.60;;;;;;5048298;28;20962;-70
2021/05/02 10:04:57;;;;;;;3.87;2.07;;;11.70;98.00;;;;;;5049462;28;20453;-70
2021/05/02 10:07:26;;;;;;;1.30;1.30;;;11.50;95.90;;;;;;5052032;28;21138;-71
2021/05/02 10:09:53;;;;;;;2.53;2.07;;;11.40;97.50;;;;;;5049014;28;20488;-72
2021/05/02 10:12:20;;;;;;;3.17;1.83;;;11.50;96.60;;;;;;5051833;28;20924;-71
2021/05/02 10:14:49;;;;;;;2.23;1.60;;;11.60;95.30;;;;;;5048753;28;20453;-71
2021/05/02 10:17:16;;;;;;;2.50;2.03;;;11.70;95.90;;;;;;5051720;28;20757;-71
2021/05/02 10:19:45;;;;;;;3.93;2.50;;;11.60;93.10;;;;;;5048872;28;20562;-71
2021/05/02 10:22:12;;;;;;;4.80;1.93;;;11.50;94.00;;;;;;5051480;28;21000;-71
2021/05/02 10:24:40;;;;;;;4.20;2.47;;;11.40;94.20;;;;;;5048050;28;20459;-71
2021/05/02 10:27:08;;;;;;;4.10;3.37;;;11.50;94.00;;;;;;5050888;28;20882;-71
2021/05/02 10:29:37;;;;;;;1.67;1.33;;;11.60;95.80;;;;;;5049660;28;20485;-71
2021/05/02 10:32:05;;;;;;;3.87;2.30;;;11.70;97.80;;;;;;5051446;28;20449;-71
2021/05/02 10:34:33;;;;;;;2.27;1.80;;;11.90;97.00;;;;;;5051048;28;20449;-72
2021/05/02 10:37:35;;;;;;;2.63;2.40;;;12.10;95.50;;;;;;5049380;28;20955;-71
2021/05/02 10:40:19;;;;;;;1.87;1.40;;;12.20;94.40;;;;;;5044813;28;20946;-71
2021/05/02 10:42:49;;;;;;;2.93;2.17;;;12.20;96.90;;;;;;5051242;28;20456;-71
2021/05/02 10:45:41;;;;;;;2.00;1.93;;;12.20;92.10;;;;;;5048153;28;20460;-71
2021/05/02 10:48:09;;;;;;;2.80;2.00;;;12.00;94.80;;;;;;5051173;28;20465;-72
2021/05/02 10:50:41;;;;;;;4.10;2.10;;;12.10;93.90;;;;;;5048438;28;20834;-72
2021/05/02 10:53:11;;;;;;;3.30;1.90;;;12.20;97.00;;;;;;5049870;28;20460;-73
2021/05/02 10:55:59;;;;;;;2.83;2.43;;;12.20;92.20;;;;;;5048159;28;20888;-72
2021/05/02 10:58:27;;;;;;;1.90;1.87;;;12.20;93.30;;;;;;5051012;28;20471;-72
2021/05/02 11:00:57;;;;;;;2.17;2.00;;;12.10;93.50;;;;;;5048468;28;20459;-72
2021/05/02 11:04:00;;;;;;;6.77;1.97;;;12.00;91.20;;;;;;5049579;28;20468;-71
2021/05/02 11:06:54;;;;;;;2.13;1.27;;;11.80;91.60;;;;;;5048044;28;20458;-71
2021/05/02 11:09:29;;;;;;;2.60;1.97;;;11.70;92.90;;;;;;5050876;28;20461;-72
2021/05/02 11:11:58;;;;;;;1.87;1.50;;;11.50;92.50;;;;;;5048843;28;20450;-71
2021/05/02 11:14:37;;;;;;;3.13;1.67;;;11.40;91.70;;;;;;5054865;28;21064;-71
2021/05/02 11:17:34;;;;;;;3.10;1.83;;;11.50;91.50;;;;;;5053717;28;20455;-71
2021/05/02 11:20:01;;;;;;;2.07;1.93;;;11.90;88.50;;;;;;5052174;28;20823;-71
2021/05/02 11:22:29;;;;;;;2.27;1.53;;;12.20;88.50;;;;;;5054939;28;20493;-71
2021/05/02 11:25:02;;;;;;;2.23;1.40;;;12.40;87.70;;;;;;5052150;28;20468;-72
2021/05/02 11:30:31;;;;;;;3.00;1.97;;;13.60;86.60;;;;;;5051824;28;20571;-71
2021/05/02 11:33:00;;;;;;;4.83;2.40;;;14.20;83.00;;;;;;5054769;28;20463;-71
2021/05/02 11:35:56;;;;;;;1.80;1.50;;;14.60;82.70;;;;;;5051576;28;20868;-71
2021/05/02 11:38:39;;;;;;;3.13;1.97;;;15.00;81.60;;;;;;5041658;28;20816;-72
2021/05/02 11:41:09;;;;;;;2.53;2.17;;;15.00;82.20;;;;;;5050202;28;20467;-71
2021/05/02 11:43:42;;;;;;;2.70;2.00;;;15.30;79.30;;;;;;5039474;28;20455;-71
2021/05/02 11:46:17;;;;;;;1.77;1.70;;;15.30;78.20;;;;;;5031529;28;20468;-72
2021/05/02 11:48:46;;;;;;;4.20;2.43;;;15.70;80.10;;;;;;5034088;28;20457;-72
2021/05/02 11:51:24;;;;;;;1.80;1.67;;;15.80;80.80;;;;;;5032350;28;20479;-72
2021/05/02 11:53:56;;;;;;;1.70;1.67;;;15.50;80.30;;;;;;5034085;28;20461;-72
2021/05/02 11:56:29;;;;;;;3.07;2.40;;;14.80;80.50;;;;;;5031963;28;20862;-72
2021/05/02 11:58:58;;;;;;;3.83;1.73;;;14.10;79.50;;;;;;5034439;28;20454;-72
2021/05/02 12:01:26;;;;;;;3.43;1.97;;;13.80;80.20;;;;;;5031538;28;20473;-72
2021/05/02 12:04:01;;;;;;;2.20;1.43;;;13.40;81.80;;;;;;5034336;28;20548;-72
2021/05/02 12:06:29;;;;;;;3.30;2.33;;;12.90;86.40;;;;;;5031704;28;20925;-72
2021/05/02 12:08:57;;;;;;;3.43;2.23;;;12.60;88.80;;;;;;5034393;28;20451;-72
2021/05/02 12:11:24;;;;;;;2.80;2.37;;;12.20;94.30;;;;;;5031592;28;20890;-71
2021/05/02 12:13:54;;;;;;;5.93;3.37;;;12.00;97.10;;;;;;5033957;28;20456;-71
2021/05/02 12:16:21;;;;;;;3.00;2.40;;;11.80;96.20;;;;;;5031511;28;20512;-71
2021/05/02 12:18:53;;;;;;;3.73;2.17;;;11.60;98.00;;;;;;5034252;28;20459;-71
2021/05/02 12:21:39;;;;;;;2.63;1.97;;;11.50;98.00;;;;;;5031508;28;20466;-71
2021/05/02 12:24:09;;;;;;;2.53;1.83;;;11.40;98.00;;;;;;5032689;28;20854;-71
2021/05/02 12:26:37;;;;;;;2.27;2.10;;;11.40;98.00;;;;;;5031300;28;20461;-70
2021/05/02 12:29:27;;;;;;;4.17;2.67;;;11.50;98.00;;;;;;5033624;28;20481;-70
2021/05/02 12:31:55;;;;;;;4.07;3.00;;;11.50;98.00;;;;;;5031172;28;21006;-70
2021/05/02 12:34:25;;;;;;;2.00;1.60;;;11.50;98.00;;;;;;5033527;28;20451;-69
2021/05/02 12:36:51;;;;;;;2.40;1.67;;;11.80;98.00;;;;;;5031647;28;20854;-70
2021/05/02 12:39:18;;;;;;;1.77;1.70;;;12.00;97.30;;;;;;5034208;28;20460;-71
2021/05/02 12:41:52;;;;;;;4.23;2.27;;;12.50;97.00;;;;;;5032329;28;20513;-71
2021/05/02 12:44:21;;;;;;;2.07;1.60;;;12.80;94.70;;;;;;5034108;28;20932;-68
2021/05/02 12:46:50;;;;;;;1.87;1.57;;;12.90;93.10;;;;;;5031263;28;20472;-70
2021/05/02 12:49:20;;;;;;;3.33;1.80;;;13.00;91.60;;;;;;5034272;28;20465;-71
2021/05/02 12:51:50;;;;;;;2.00;1.80;;;13.50;91.20;;;;;;5029957;28;20497;-71
2021/05/02 12:54:22;;;;;;;2.63;1.60;;;14.10;88.50;;;;;;5033992;28;20469;-71
2021/05/02 12:57:01;;;;;;;1.30;1.20;;;14.40;86.40;;;;;;5031037;28;20469;-71
2021/05/02 12:59:39;;;;;;;1.90;1.40;;;14.30;85.50;;;;;;5033864;28;20473;-71
2021/05/02 13:02:12;;;;;;;2.33;1.53;;;14.00;84.10;;;;;;5029876;28;20461;-70
2021/05/02 13:04:53;;;;;;;2.37;1.70;;;13.40;87.40;;;;;;5033933;28;20454;-71
2021/05/02 13:07:37;;;;;;;2.07;1.70;;;12.80;84.90;;;;;;5032573;28;20462;-72
2021/05/02 13:10:10;;;;;;;2.33;1.80;;;12.30;88.70;;;;;;5031238;28;20483;-71